sensor_id;sensor_type;location;lat;lon;timestamp;pressure;altitude;pressure_sealevel;temperature;humidity
22025;BME280;11176;51.448;6.650;2023-08-17T00:01:17;41385.81;;;-141.29;100.00
22025;BME280;11176;51.448;6.650;2023-08-17T00:03:43;41425.75;;;-141.29;100.00
22025;BME280;11176;51.448;6.650;2023-08-17T00:06:10;41421.75;;;-141.29;100.00
22025;BME280;11176;51.448;6.650;2023-08-17T00:08:37;41401.78;;;-141.29;100.00
22025;BME280;11176;51.448;6.650;2023-08-17T00:11:03;41413.75;;;-141.29;100.00
22025;BME280;11176;51.448;6.650;2023-08-17T00:13:30;41443.72;;;-141.29;100.00
22025;BME280;11176;51.448;6.650;2023-08-17T00:15:56;41451.69;;;-141.29;100.00
22025;BME280;11176;51.448;6.650;2023-08-17T00:18:23;41459.66;;;-141.29;100.00
22025;BME280;11176;51.448;6.650;2023-08-17T00:20:49;41463.66;;;-141.29;100.00
22025;BME280;11176;51.448;6.650;2023-08-17T00:23:16;41473.66;;;-141.29;100.00
22025;BME280;11176;51.448;6.650;2023-08-17T00:25:42;41491.63;;;-141.29;100.00
22025;BME280;11176;51.448;6.650;2023-08-17T00:28:09;41479.63;;;-141.29;100.00
22025;BME280;11176;51.448;6.650;2023-08-17T00:30:35;41489.63;;;-141.29;100.00
22025;BME280;11176;51.448;6.650;2023-08-17T00:33:04;41483.63;;;-141.29;100.00
22025;BME280;11176;51.448;6.650;2023-08-17T00:35:30;41491.63;;;-141.29;100.00
22025;BME280;11176;51.448;6.650;2023-08-17T00:37:57;41511.56;;;-141.29;100.00
22025;BME280;11176;51.448;6.650;2023-08-17T00:40:24;41519.56;;;-141.29;100.00
22025;BME280;11176;51.448;6.650;2023-08-17T00:42:50;41515.56;;;-141.29;100.00
22025;BME280;11176;51.448;6.650;2023-08-17T00:45:19;41527.53;;;-141.29;100.00
22025;BME280;11176;51.448;6.650;2023-08-17T00:47:46;41491.63;;;-141.29;100.00
22025;BME280;11176;51.448;6.650;2023-08-17T00:50:14;41511.56;;;-141.29;100.00
22025;BME280;11176;51.448;6.650;2023-08-17T00:52:41;41525.53;;;-141.29;100.00
22025;BME280;11176;51.448;6.650;2023-08-17T00:55:09;41539.53;;;-141.29;100.00
22025;BME280;11176;51.448;6.650;2023-08-17T00:57:37;41535.53;;;-141.29;100.00
22025;BME280;11176;51.448;6.650;2023-08-17T01:00:05;41543.50;;;-141.29;100.00
22025;BME280;11176;51.448;6.650;2023-08-17T01:02:32;41555.50;;;-141.29;100.00
22025;BME280;11176;51.448;6.650;2023-08-17T01:05:00;41581.44;;;-141.29;100.00
22025;BME280;11176;51.448;6.650;2023-08-17T01:07:27;41583.44;;;-141.29;100.00
22025;BME280;11176;51.448;6.650;2023-08-17T01:09:54;41603.41;;;-141.29;100.00
22025;BME280;11176;51.448;6.650;2023-08-17T01:12:31;41591.41;;;-141.29;100.00
22025;BME280;11176;51.448;6.650;2023-08-17T01:15:11;41631.34;;;-141.29;100.00
22025;BME280;11176;51.448;6.650;2023-08-17T01:17:43;41627.34;;;-141.29;100.00
22025;BME280;11176;51.448;6.650;2023-08-17T01:20:10;41643.31;;;-141.29;100.00
22025;BME280;11176;51.448;6.650;2023-08-17T01:22:41;41655.28;;;-141.29;100.00
22025;BME280;11176;51.448;6.650;2023-08-17T01:25:09;41683.25;;;-141.29;100.00
22025;BME280;11176;51.448;6.650;2023-08-17T01:27:45;41667.28;;;-141.29;100.00
22025;BME280;11176;51.448;6.650;2023-08-17T01:30:14;41675.25;;;-141.29;100.00
22025;BME280;11176;51.448;6.650;2023-08-17T01:32:49;41683.25;;;-141.29;100.00
22025;BME280;11176;51.448;6.650;2023-08-17T01:37:53;41703.19;;;-141.29;100.00
22025;BME280;11176;51.448;6.650;2023-08-17T01:40:22;41721.16;;;-141.29;100.00
22025;BME280;11176;51.448;6.650;2023-08-17T01:42:50;41711.19;;;-141.29;100.00
22025;BME280;11176;51.448;6.650;2023-08-17T01:45:17;41745.13;;;-141.29;100.00
22025;BME280;11176;51.448;6.650;2023-08-17T01:47:43;41751.13;;;-141.29;100.00
22025;BME280;11176;51.448;6.650;2023-08-17T01:50:10;41729.16;;;-141.29;100.00
22025;BME280;11176;51.448;6.650;2023-08-17T01:52:36;41757.09;;;-141.29;100.00
22025;BME280;11176;51.448;6.650;2023-08-17T01:55:03;41767.09;;;-141.29;100.00
22025;BME280;11176;51.448;6.650;2023-08-17T01:57:30;41787.03;;;-141.29;100.00
22025;BME280;11176;51.448;6.650;2023-08-17T01:59:56;41826.97;;;-141.29;100.00
22025;BME280;11176;51.448;6.650;2023-08-17T02:02:23;41809.00;;;-141.29;100.00
22025;BME280;11176;51.448;6.650;2023-08-17T02:04:49;41842.94;;;-141.29;100.00
22025;BME280;11176;51.448;6.650;2023-08-17T02:07:16;41836.94;;;-141.29;100.00
22025;BME280;11176;51.448;6.650;2023-08-17T02:09:46;41846.94;;;-141.29;100.00
22025;BME280;11176;51.448;6.650;2023-08-17T02:12:12;41858.91;;;-141.29;100.00
22025;BME280;11176;51.448;6.650;2023-08-17T02:14:39;41866.91;;;-141.29;100.00
22025;BME280;11176;51.448;6.650;2023-08-17T02:17:06;41870.88;;;-141.29;100.00
22025;BME280;11176;51.448;6.650;2023-08-17T02:19:32;41870.88;;;-141.29;100.00
22025;BME280;11176;51.448;6.650;2023-08-17T02:21:59;41910.81;;;-141.29;100.00
22025;BME280;11176;51.448;6.650;2023-08-17T02:24:25;41870.88;;;-141.29;100.00
22025;BME280;11176;51.448;6.650;2023-08-17T02:26:52;41874.88;;;-141.29;100.00
22025;BME280;11176;51.448;6.650;2023-08-17T02:29:18;41886.84;;;-141.29;100.00
22025;BME280;11176;51.448;6.650;2023-08-17T02:31:45;41870.88;;;-141.29;100.00
22025;BME280;11176;51.448;6.650;2023-08-17T02:34:11;41866.91;;;-141.29;100.00
22025;BME280;11176;51.448;6.650;2023-08-17T02:36:38;41882.88;;;-141.29;100.00
22025;BME280;11176;51.448;6.650;2023-08-17T02:39:04;41852.91;;;-141.29;100.00
22025;BME280;11176;51.448;6.650;2023-08-17T02:41:31;41864.91;;;-141.29;100.00
22025;BME280;11176;51.448;6.650;2023-08-17T02:43:59;41862.91;;;-141.29;100.00
22025;BME280;11176;51.448;6.650;2023-08-17T02:46:26;41844.94;;;-141.29;100.00
22025;BME280;11176;51.448;6.650;2023-08-17T02:48:52;41870.88;;;-141.29;100.00
22025;BME280;11176;51.448;6.650;2023-08-17T02:51:19;41850.94;;;-141.29;100.00
22025;BME280;11176;51.448;6.650;2023-08-17T02:53:46;41866.91;;;-141.29;100.00
22025;BME280;11176;51.448;6.650;2023-08-17T02:56:12;41846.94;;;-141.29;100.00
22025;BME280;11176;51.448;6.650;2023-08-17T02:58:39;41858.91;;;-141.29;100.00
22025;BME280;11176;51.448;6.650;2023-08-17T03:01:08;41846.94;;;-141.29;100.00
22025;BME280;11176;51.448;6.650;2023-08-17T03:03:35;41866.91;;;-141.29;100.00
22025;BME280;11176;51.448;6.650;2023-08-17T03:06:02;41854.91;;;-141.29;100.00
22025;BME280;11176;51.448;6.650;2023-08-17T03:08:29;41878.88;;;-141.29;100.00
22025;BME280;11176;51.448;6.650;2023-08-17T03:10:55;41874.88;;;-141.29;100.00
22025;BME280;11176;51.448;6.650;2023-08-17T03:13:22;41880.88;;;-141.29;100.00
22025;BME280;11176;51.448;6.650;2023-08-17T03:15:49;41892.84;;;-141.29;100.00
22025;BME280;11176;51.448;6.650;2023-08-17T03:18:16;41902.84;;;-141.29;100.00
22025;BME280;11176;51.448;6.650;2023-08-17T03:20:44;41906.81;;;-141.29;100.00
22025;BME280;11176;51.448;6.650;2023-08-17T03:23:12;41916.81;;;-141.29;100.00
22025;BME280;11176;51.448;6.650;2023-08-17T03:25:39;41924.78;;;-141.29;100.00
22025;BME280;11176;51.448;6.650;2023-08-17T03:28:05;41922.78;;;-141.29;100.00
22025;BME280;11176;51.448;6.650;2023-08-17T03:30:32;41922.78;;;-141.29;100.00
22025;BME280;11176;51.448;6.650;2023-08-17T03:32:59;41934.78;;;-141.29;100.00
22025;BME280;11176;51.448;6.650;2023-08-17T03:35:26;41966.72;;;-141.29;100.00
22025;BME280;11176;51.448;6.650;2023-08-17T03:37:52;41982.69;;;-141.29;100.00
22025;BME280;11176;51.448;6.650;2023-08-17T03:40:20;41986.69;;;-141.29;100.00
22025;BME280;11176;51.448;6.650;2023-08-17T03:42:46;41994.66;;;-141.29;100.00
22025;BME280;11176;51.448;6.650;2023-08-17T03:45:13;42006.66;;;-141.29;100.00
22025;BME280;11176;51.448;6.650;2023-08-17T03:47:39;42000.66;;;-141.29;100.00
22025;BME280;11176;51.448;6.650;2023-08-17T03:50:06;41986.69;;;-141.29;100.00
22025;BME280;11176;51.448;6.650;2023-08-17T03:52:33;41996.66;;;-141.29;100.00
22025;BME280;11176;51.448;6.650;2023-08-17T03:55:00;42002.66;;;-141.29;100.00
22025;BME280;11176;51.448;6.650;2023-08-17T03:57:26;42012.63;;;-141.29;100.00
22025;BME280;11176;51.448;6.650;2023-08-17T03:59:53;42022.63;;;-141.29;100.00
22025;BME280;11176;51.448;6.650;2023-08-17T04:02:20;42016.63;;;-141.29;100.00
22025;BME280;11176;51.448;6.650;2023-08-17T04:04:46;42024.59;;;-141.29;100.00
22025;BME280;11176;51.448;6.650;2023-08-17T04:07:20;42022.63;;;-141.29;100.00
22025;BME280;11176;51.448;6.650;2023-08-17T04:09:47;42026.59;;;-141.29;100.00
22025;BME280;11176;51.448;6.650;2023-08-17T04:12:14;42018.63;;;-141.29;100.00
22025;BME280;11176;51.448;6.650;2023-08-17T04:14:40;42030.59;;;-141.29;100.00
22025;BME280;11176;51.448;6.650;2023-08-17T04:17:07;42046.56;;;-141.29;100.00
22025;BME280;11176;51.448;6.650;2023-08-17T04:19:34;42054.56;;;-141.29;100.00
22025;BME280;11176;51.448;6.650;2023-08-17T04:22:01;42034.59;;;-141.29;100.00
22025;BME280;11176;51.448;6.650;2023-08-17T04:24:27;42054.56;;;-141.29;100.00
22025;BME280;11176;51.448;6.650;2023-08-17T04:26:53;42054.56;;;-141.29;100.00
22025;BME280;11176;51.448;6.650;2023-08-17T04:29:20;42042.56;;;-141.29;100.00
22025;BME280;11176;51.448;6.650;2023-08-17T04:31:47;42066.53;;;-141.29;100.00
22025;BME280;11176;51.448;6.650;2023-08-17T04:34:14;42072.53;;;-141.29;100.00
22025;BME280;11176;51.448;6.650;2023-08-17T04:36:40;42080.50;;;-141.29;100.00
22025;BME280;11176;51.448;6.650;2023-08-17T04:39:07;42060.53;;;-141.29;100.00
22025;BME280;11176;51.448;6.650;2023-08-17T04:41:35;42068.53;;;-141.29;100.00
22025;BME280;11176;51.448;6.650;2023-08-17T04:44:05;42078.50;;;-141.29;100.00
22025;BME280;11176;51.448;6.650;2023-08-17T04:46:32;42094.47;;;-141.29;100.00
22025;BME280;11176;51.448;6.650;2023-08-17T04:48:58;42064.53;;;-141.29;100.00
22025;BME280;11176;51.448;6.650;2023-08-17T04:51:26;42092.50;;;-141.29;100.00
22025;BME280;11176;51.448;6.650;2023-08-17T04:53:55;42086.50;;;-141.29;100.00
22025;BME280;11176;51.448;6.650;2023-08-17T04:56:22;42090.50;;;-141.29;100.00
22025;BME280;11176;51.448;6.650;2023-08-17T04:58:48;42104.47;;;-141.29;100.00
22025;BME280;11176;51.448;6.650;2023-08-17T05:01:16;42090.50;;;-141.29;100.00
22025;BME280;11176;51.448;6.650;2023-08-17T05:03:44;42102.47;;;-141.29;100.00
22025;BME280;11176;51.448;6.650;2023-08-17T05:06:13;42106.47;;;-141.29;100.00
22025;BME280;11176;51.448;6.650;2023-08-17T05:08:39;42114.44;;;-141.29;100.00
22025;BME280;11176;51.448;6.650;2023-08-17T05:11:06;42114.44;;;-141.29;100.00
22025;BME280;11176;51.448;6.650;2023-08-17T05:13:33;42136.41;;;-141.29;100.00
22025;BME280;11176;51.448;6.650;2023-08-17T05:16:02;42160.38;;;-141.29;100.00
22025;BME280;11176;51.448;6.650;2023-08-17T05:18:29;42182.31;;;-141.29;100.00
22025;BME280;11176;51.448;6.650;2023-08-17T05:20:56;42202.28;;;-141.29;100.00
22025;BME280;11176;51.448;6.650;2023-08-17T05:23:23;42218.25;;;-141.29;100.00
22025;BME280;11176;51.448;6.650;2023-08-17T05:25:51;42230.25;;;-141.29;100.00
22025;BME280;11176;51.448;6.650;2023-08-17T05:28:17;42256.19;;;-141.29;100.00
22025;BME280;11176;51.448;6.650;2023-08-17T05:30:44;42278.16;;;-141.29;100.00
22025;BME280;11176;51.448;6.650;2023-08-17T05:33:10;42304.13;;;-141.29;100.00
22025;BME280;11176;51.448;6.650;2023-08-17T05:35:38;42300.13;;;-141.29;100.00
22025;BME280;11176;51.448;6.650;2023-08-17T05:38:04;42316.09;;;-141.29;100.00
22025;BME280;11176;51.448;6.650;2023-08-17T05:40:32;42346.03;;;-141.29;100.00
22025;BME280;11176;51.448;6.650;2023-08-17T05:42:58;42364.00;;;-141.29;100.00
22025;BME280;11176;51.448;6.650;2023-08-17T05:45:25;42376.00;;;-141.29;100.00
22025;BME280;11176;51.448;6.650;2023-08-17T05:47:52;42372.00;;;-141.29;100.00
22025;BME280;11176;51.448;6.650;2023-08-17T05:50:19;42378.00;;;-141.29;100.00
22025;BME280;11176;51.448;6.650;2023-08-17T05:52:45;42393.97;;;-141.29;100.00
22025;BME280;11176;51.448;6.650;2023-08-17T05:55:12;42403.94;;;-141.29;100.00
22025;BME280;11176;51.448;6.650;2023-08-17T05:57:38;42419.91;;;-141.29;100.00
22025;BME280;11176;51.448;6.650;2023-08-17T06:00:05;42405.94;;;-141.29;100.00
22025;BME280;11176;51.448;6.650;2023-08-17T06:02:38;42417.94;;;-141.29;100.00
22025;BME280;11176;51.448;6.650;2023-08-17T06:05:05;42411.94;;;-141.29;100.00
22025;BME280;11176;51.448;6.650;2023-08-17T06:07:32;42415.94;;;-141.29;100.00
22025;BME280;11176;51.448;6.650;2023-08-17T06:09:59;42439.88;;;-141.29;100.00
22025;BME280;11176;51.448;6.650;2023-08-17T06:12:25;42431.91;;;-141.29;100.00
22025;BME280;11176;51.448;6.650;2023-08-17T06:14:52;42449.88;;;-141.29;100.00
22025;BME280;11176;51.448;6.650;2023-08-17T06:17:19;42429.91;;;-141.29;100.00
22025;BME280;11176;51.448;6.650;2023-08-17T06:19:46;42441.88;;;-141.29;100.00
22025;BME280;11176;51.448;6.650;2023-08-17T06:22:12;42439.88;;;-141.29;100.00
22025;BME280;11176;51.448;6.650;2023-08-17T06:24:39;42427.91;;;-141.29;100.00
22025;BME280;11176;51.448;6.650;2023-08-17T06:27:05;42409.94;;;-141.29;100.00
22025;BME280;11176;51.448;6.650;2023-08-17T06:29:32;42409.94;;;-141.29;100.00
22025;BME280;11176;51.448;6.650;2023-08-17T06:31:58;42405.94;;;-141.29;100.00
22025;BME280;11176;51.448;6.650;2023-08-17T06:34:25;42413.94;;;-141.29;100.00
22025;BME280;11176;51.448;6.650;2023-08-17T06:37:01;42399.97;;;-141.29;100.00
22025;BME280;11176;51.448;6.650;2023-08-17T06:39:28;42409.94;;;-141.29;100.00
22025;BME280;11176;51.448;6.650;2023-08-17T06:41:54;42425.91;;;-141.29;100.00
22025;BME280;11176;51.448;6.650;2023-08-17T06:44:21;42405.94;;;-141.29;100.00
22025;BME280;11176;51.448;6.650;2023-08-17T06:46:47;42393.97;;;-141.29;100.00
22025;BME280;11176;51.448;6.650;2023-08-17T06:49:14;42395.97;;;-141.29;100.00
22025;BME280;11176;51.448;6.650;2023-08-17T06:51:41;42397.97;;;-141.29;100.00
22025;BME280;11176;51.448;6.650;2023-08-17T06:54:08;42397.97;;;-141.29;100.00
22025;BME280;11176;51.448;6.650;2023-08-17T06:56:35;42362.03;;;-141.29;100.00
22025;BME280;11176;51.448;6.650;2023-08-17T06:59:02;42378.00;;;-141.29;100.00
22025;BME280;11176;51.448;6.650;2023-08-17T07:01:29;42360.03;;;-141.29;100.00
22025;BME280;11176;51.448;6.650;2023-08-17T07:03:55;42362.03;;;-141.29;100.00
22025;BME280;11176;51.448;6.650;2023-08-17T07:06:24;42362.03;;;-141.29;100.00
22025;BME280;11176;51.448;6.650;2023-08-17T07:08:51;42387.97;;;-141.29;100.00
22025;BME280;11176;51.448;6.650;2023-08-17T07:11:18;42358.03;;;-141.29;100.00
22025;BME280;11176;51.448;6.650;2023-08-17T07:13:46;42372.00;;;-141.29;100.00
22025;BME280;11176;51.448;6.650;2023-08-17T07:16:13;42362.03;;;-141.29;100.00
22025;BME280;11176;51.448;6.650;2023-08-17T07:18:39;42374.00;;;-141.29;100.00
22025;BME280;11176;51.448;6.650;2023-08-17T07:21:06;42393.97;;;-141.29;100.00
22025;BME280;11176;51.448;6.650;2023-08-17T07:23:33;42405.94;;;-141.29;100.00
22025;BME280;11176;51.448;6.650;2023-08-17T07:25:59;42411.94;;;-141.29;100.00
22025;BME280;11176;51.448;6.650;2023-08-17T07:28:26;42387.97;;;-141.29;100.00
22025;BME280;11176;51.448;6.650;2023-08-17T07:30:53;42385.97;;;-141.29;100.00
22025;BME280;11176;51.448;6.650;2023-08-17T07:33:19;42387.97;;;-141.29;100.00
22025;BME280;11176;51.448;6.650;2023-08-17T07:35:46;42381.97;;;-141.29;100.00
22025;BME280;11176;51.448;6.650;2023-08-17T07:38:12;42368.00;;;-141.29;100.00
22025;BME280;11176;51.448;6.650;2023-08-17T07:40:39;42378.00;;;-141.29;100.00
22025;BME280;11176;51.448;6.650;2023-08-17T07:43:05;42381.97;;;-141.29;100.00
22025;BME280;11176;51.448;6.650;2023-08-17T07:45:32;42368.00;;;-141.29;100.00
22025;BME280;11176;51.448;6.650;2023-08-17T07:47:58;42370.00;;;-141.29;100.00
22025;BME280;11176;51.448;6.650;2023-08-17T07:50:25;42362.03;;;-141.29;100.00
22025;BME280;11176;51.448;6.650;2023-08-17T07:52:51;42354.03;;;-141.29;100.00
22025;BME280;11176;51.448;6.650;2023-08-17T07:55:18;42354.03;;;-141.29;100.00
22025;BME280;11176;51.448;6.650;2023-08-17T07:57:44;42338.06;;;-141.29;100.00
22025;BME280;11176;51.448;6.650;2023-08-17T08:00:11;42362.03;;;-141.29;100.00
22025;BME280;11176;51.448;6.650;2023-08-17T08:02:38;42362.03;;;-141.29;100.00
22025;BME280;11176;51.448;6.650;2023-08-17T08:05:05;42338.06;;;-141.29;100.00
22025;BME280;11176;51.448;6.650;2023-08-17T08:07:32;42350.03;;;-141.29;100.00
22025;BME280;11176;51.448;6.650;2023-08-17T08:09:58;42322.09;;;-141.29;100.00
22025;BME280;11176;51.448;6.650;2023-08-17T08:12:25;42332.06;;;-141.29;100.00
22025;BME280;11176;51.448;6.650;2023-08-17T08:14:51;42302.13;;;-141.29;100.00
22025;BME280;11176;51.448;6.650;2023-08-17T08:17:18;42310.09;;;-141.29;100.00
22025;BME280;11176;51.448;6.650;2023-08-17T08:19:45;42310.09;;;-141.29;100.00
22025;BME280;11176;51.448;6.650;2023-08-17T08:22:12;42330.06;;;-141.29;100.00
22025;BME280;11176;51.448;6.650;2023-08-17T08:24:39;42318.09;;;-141.29;100.00
22025;BME280;11176;51.448;6.650;2023-08-17T08:27:07;42314.09;;;-141.29;100.00
22025;BME280;11176;51.448;6.650;2023-08-17T08:29:34;42298.13;;;-141.29;100.00
22025;BME280;11176;51.448;6.650;2023-08-17T08:32:00;42322.09;;;-141.29;100.00
22025;BME280;11176;51.448;6.650;2023-08-17T08:34:29;42314.09;;;-141.29;100.00
22025;BME280;11176;51.448;6.650;2023-08-17T08:36:55;42326.09;;;-141.29;100.00
22025;BME280;11176;51.448;6.650;2023-08-17T08:39:21;42312.09;;;-141.29;100.00
22025;BME280;11176;51.448;6.650;2023-08-17T08:41:48;42306.13;;;-141.29;100.00
22025;BME280;11176;51.448;6.650;2023-08-17T08:44:15;42310.09;;;-141.29;100.00
22025;BME280;11176;51.448;6.650;2023-08-17T08:46:44;42322.09;;;-141.29;100.00
22025;BME280;11176;51.448;6.650;2023-08-17T08:49:11;42328.06;;;-141.29;100.00
22025;BME280;11176;51.448;6.650;2023-08-17T08:51:42;42310.09;;;-141.29;100.00
22025;BME280;11176;51.448;6.650;2023-08-17T08:54:18;42310.09;;;-141.29;100.00
22025;BME280;11176;51.448;6.650;2023-08-17T08:56:50;42320.09;;;-141.29;100.00
22025;BME280;11176;51.448;6.650;2023-08-17T08:59:20;42310.09;;;-141.29;100.00
22025;BME280;11176;51.448;6.650;2023-08-17T09:01:47;42316.09;;;-141.29;100.00
22025;BME280;11176;51.448;6.650;2023-08-17T09:04:16;42314.09;;;-141.29;100.00
22025;BME280;11176;51.448;6.650;2023-08-17T09:06:43;42298.13;;;-141.29;100.00
22025;BME280;11176;51.448;6.650;2023-08-17T09:09:10;42300.13;;;-141.29;100.00
22025;BME280;11176;51.448;6.650;2023-08-17T09:11:37;42308.09;;;-141.29;100.00
22025;BME280;11176;51.448;6.650;2023-08-17T09:14:10;42302.13;;;-141.29;100.00
22025;BME280;11176;51.448;6.650;2023-08-17T09:16:37;42298.13;;;-141.29;100.00
22025;BME280;11176;51.448;6.650;2023-08-17T09:19:04;42288.16;;;-141.29;100.00
22025;BME280;11176;51.448;6.650;2023-08-17T09:21:32;42290.13;;;-141.29;100.00
22025;BME280;11176;51.448;6.650;2023-08-17T09:23:59;42296.13;;;-141.29;100.00
22025;BME280;11176;51.448;6.650;2023-08-17T09:26:30;42298.13;;;-141.29;100.00
22025;BME280;11176;51.448;6.650;2023-08-17T09:28:59;42298.13;;;-141.29;100.00
22025;BME280;11176;51.448;6.650;2023-08-17T09:31:26;42288.16;;;-141.29;100.00
22025;BME280;11176;51.448;6.650;2023-08-17T09:33:52;42302.13;;;-141.29;100.00
22025;BME280;11176;51.448;6.650;2023-08-17T09:36:23;42314.09;;;-141.29;100.00
22025;BME280;11176;51.448;6.650;2023-08-17T09:38:53;42302.13;;;-141.29;100.00
22025;BME280;11176;51.448;6.650;2023-08-17T09:41:19;42290.13;;;-141.29;100.00
22025;BME280;11176;51.448;6.650;2023-08-17T09:43:47;42318.09;;;-141.29;100.00
22025;BME280;11176;51.448;6.650;2023-08-17T09:46:14;42316.09;;;-141.29;100.00
22025;BME280;11176;51.448;6.650;2023-08-17T09:48:43;42296.13;;;-141.29;100.00
22025;BME280;11176;51.448;6.650;2023-08-17T09:51:10;42306.13;;;-141.29;100.00
22025;BME280;11176;51.448;6.650;2023-08-17T09:53:37;42322.09;;;-141.29;100.00
22025;BME280;11176;51.448;6.650;2023-08-17T09:56:05;42306.13;;;-141.29;100.00
22025;BME280;11176;51.448;6.650;2023-08-17T09:58:33;42300.13;;;-141.29;100.00
22025;BME280;11176;51.448;6.650;2023-08-17T10:01:03;42294.13;;;-141.29;100.00
22025;BME280;11176;51.448;6.650;2023-08-17T10:03:33;42302.13;;;-141.29;100.00
22025;BME280;11176;51.448;6.650;2023-08-17T10:06:09;42286.16;;;-141.29;100.00
22025;BME280;11176;51.448;6.650;2023-08-17T10:08:42;42298.13;;;-141.29;100.00
22025;BME280;11176;51.448;6.650;2023-08-17T10:11:10;42290.13;;;-141.29;100.00
22025;BME280;11176;51.448;6.650;2023-08-17T10:16:36;42270.19;;;-141.29;100.00
22025;BME280;11176;51.448;6.650;2023-08-17T10:19:08;42310.09;;;-141.29;100.00
22025;BME280;11176;51.448;6.650;2023-08-17T10:22:06;42304.13;;;-141.29;100.00
22025;BME280;11176;51.448;6.650;2023-08-17T10:24:35;42298.13;;;-141.29;100.00
22025;BME280;11176;51.448;6.650;2023-08-17T10:27:05;42312.09;;;-141.29;100.00
22025;BME280;11176;51.448;6.650;2023-08-17T10:29:32;42306.13;;;-141.29;100.00
22025;BME280;11176;51.448;6.650;2023-08-17T10:32:00;42318.09;;;-141.29;100.00
22025;BME280;11176;51.448;6.650;2023-08-17T10:34:28;42302.13;;;-141.29;100.00
22025;BME280;11176;51.448;6.650;2023-08-17T10:36:55;42304.13;;;-141.29;100.00
22025;BME280;11176;51.448;6.650;2023-08-17T10:39:29;42306.13;;;-141.29;100.00
22025;BME280;11176;51.448;6.650;2023-08-17T10:41:57;42310.09;;;-141.29;100.00
22025;BME280;11176;51.448;6.650;2023-08-17T10:44:47;42300.13;;;-141.29;100.00
22025;BME280;11176;51.448;6.650;2023-08-17T10:47:31;42318.09;;;-141.29;100.00
22025;BME280;11176;51.448;6.650;2023-08-17T10:50:06;42324.09;;;-141.29;100.00
22025;BME280;11176;51.448;6.650;2023-08-17T10:52:48;42290.13;;;-141.29;100.00
22025;BME280;11176;51.448;6.650;2023-08-17T10:55:14;42302.13;;;-141.29;100.00
22025;BME280;11176;51.448;6.650;2023-08-17T10:57:42;42314.09;;;-141.29;100.00
22025;BME280;11176;51.448;6.650;2023-08-17T11:00:20;42312.09;;;-141.29;100.00
22025;BME280;11176;51.448;6.650;2023-08-17T11:03:00;42310.09;;;-141.29;100.00
22025;BME280;11176;51.448;6.650;2023-08-17T11:05:54;42306.13;;;-141.29;100.00
22025;BME280;11176;51.448;6.650;2023-08-17T11:08:32;42298.13;;;-141.29;100.00
22025;BME280;11176;51.448;6.650;2023-08-17T11:11:13;42306.13;;;-141.29;100.00
22025;BME280;11176;51.448;6.650;2023-08-17T11:13:42;42320.09;;;-141.29;100.00
22025;BME280;11176;51.448;6.650;2023-08-17T11:16:10;42314.09;;;-141.29;100.00
22025;BME280;11176;51.448;6.650;2023-08-17T11:18:41;42298.13;;;-141.29;100.00
22025;BME280;11176;51.448;6.650;2023-08-17T11:21:08;42302.13;;;-141.29;100.00
22025;BME280;11176;51.448;6.650;2023-08-17T11:23:37;42322.09;;;-141.29;100.00
22025;BME280;11176;51.448;6.650;2023-08-17T11:26:04;42322.09;;;-141.29;100.00
22025;BME280;11176;51.448;6.650;2023-08-17T11:28:32;42302.13;;;-141.29;100.00
22025;BME280;11176;51.448;6.650;2023-08-17T11:31:11;42298.13;;;-141.29;100.00
22025;BME280;11176;51.448;6.650;2023-08-17T11:33:39;42310.09;;;-141.29;100.00
22025;BME280;11176;51.448;6.650;2023-08-17T11:36:07;42316.09;;;-141.29;100.00
22025;BME280;11176;51.448;6.650;2023-08-17T11:38:38;42306.13;;;-141.29;100.00
22025;BME280;11176;51.448;6.650;2023-08-17T11:41:05;42306.13;;;-141.29;99.95
22025;BME280;11176;51.448;6.650;2023-08-17T11:43:35;42304.13;;;-141.29;99.19
22025;BME280;11176;51.448;6.650;2023-08-17T11:46:02;42306.13;;;-141.29;99.82
22025;BME280;11176;51.448;6.650;2023-08-17T11:48:30;42316.09;;;-141.29;99.91
22025;BME280;11176;51.448;6.650;2023-08-17T11:51:02;42296.13;;;-141.29;99.74
22025;BME280;11176;51.448;6.650;2023-08-17T11:53:36;42320.09;;;-141.29;100.00
22025;BME280;11176;51.448;6.650;2023-08-17T11:56:05;42322.09;;;-141.29;100.00
22025;BME280;11176;51.448;6.650;2023-08-17T11:58:43;42298.13;;;-141.29;100.00
22025;BME280;11176;51.448;6.650;2023-08-17T12:01:11;42342.06;;;-141.29;100.00
22025;BME280;11176;51.448;6.650;2023-08-17T12:03:39;42316.09;;;-141.29;100.00
22025;BME280;11176;51.448;6.650;2023-08-17T12:06:10;42298.13;;;-141.29;99.58
22025;BME280;11176;51.448;6.650;2023-08-17T12:08:42;42288.16;;;-141.29;99.66
22025;BME280;11176;51.448;6.650;2023-08-17T12:11:12;42326.09;;;-141.29;99.75
22025;BME280;11176;51.448;6.650;2023-08-17T12:13:38;42326.09;;;-141.29;98.97
22025;BME280;11176;51.448;6.650;2023-08-17T12:16:05;42324.09;;;-141.29;98.84
22025;BME280;11176;51.448;6.650;2023-08-17T12:18:32;42310.09;;;-141.29;98.79
22025;BME280;11176;51.448;6.650;2023-08-17T12:20:59;42294.13;;;-141.29;98.42
22025;BME280;11176;51.448;6.650;2023-08-17T12:23:26;42298.13;;;-141.29;98.04
22025;BME280;11176;51.448;6.650;2023-08-17T12:25:54;42302.13;;;-141.29;97.70
22025;BME280;11176;51.448;6.650;2023-08-17T12:28:22;42296.13;;;-141.29;97.63
22025;BME280;11176;51.448;6.650;2023-08-17T12:30:57;42284.16;;;-141.29;97.13
22025;BME280;11176;51.448;6.650;2023-08-17T12:33:24;42302.13;;;-141.29;97.33
22025;BME280;11176;51.448;6.650;2023-08-17T12:35:51;42278.16;;;-141.29;97.38
22025;BME280;11176;51.448;6.650;2023-08-17T12:38:17;42298.13;;;-141.29;97.39
22025;BME280;11176;51.448;6.650;2023-08-17T12:40:44;42270.19;;;-141.29;96.91